createdAt,value
2023-04-28T00:00:59.679Z,100801.40
2023-04-28T00:03:26.135Z,100796.82
2023-04-28T00:05:52.879Z,100795.64
2023-04-28T00:09:10.595Z,100795.98
2023-04-28T00:11:37.813Z,100794.45
2023-04-28T00:14:04.996Z,100800.14
2023-04-28T00:16:31.412Z,100796.60
2023-04-28T00:18:57.806Z,100795.52
2023-04-28T00:21:24.271Z,100793.91
2023-04-28T00:23:50.700Z,100789.98
2023-04-28T00:26:16.968Z,100791.92
2023-04-28T00:28:43.306Z,100792.98
2023-04-28T00:31:13.722Z,100798.23
2023-04-28T00:33:40.385Z,100797.45
2023-04-28T00:36:07.803Z,100796.89
2023-04-28T00:43:00.641Z,100805.23
2023-04-28T00:45:27.132Z,100809.34
2023-04-28T00:47:54.918Z,100809.27
2023-04-28T00:50:23.282Z,100806.17
2023-04-28T00:52:51.190Z,100805.52
2023-04-28T00:55:18.603Z,100808.96
2023-04-28T00:57:45.917Z,100807.77
2023-04-28T01:00:14.371Z,100806.13
2023-04-28T01:02:40.975Z,100804.78
2023-04-28T01:05:09.055Z,100807.58
2023-04-28T01:07:36.562Z,100812.05
2023-04-28T01:10:03.223Z,100808.98
2023-04-28T01:12:30.036Z,100812.83
2023-04-28T01:14:56.312Z,100812.63
2023-04-28T01:17:22.982Z,100813.45
2023-04-28T01:19:49.300Z,100814.91
2023-04-28T01:22:15.942Z,100815.45
2023-04-28T01:24:42.430Z,100815.65
2023-04-28T01:27:08.747Z,100816.41
2023-04-28T01:29:35.055Z,100817.72
2023-04-28T01:32:01.380Z,100817.85
2023-04-28T01:34:27.747Z,100816.55
2023-04-28T01:36:54.204Z,100815.91
2023-04-28T01:39:20.670Z,100814.29
2023-04-28T01:41:46.948Z,100818.06
2023-04-28T01:44:13.468Z,100819.09
2023-04-28T01:46:39.784Z,100817.98
2023-04-28T01:49:06.050Z,100820.46
2023-04-28T01:51:32.497Z,100821.32
2023-04-28T01:53:58.835Z,100820.35
2023-04-28T01:56:25.241Z,100823.35
2023-04-28T01:58:51.716Z,100823.16
2023-04-28T02:01:18.217Z,100825.90
2023-04-28T02:03:44.790Z,100822.10
2023-04-28T02:06:11.425Z,100821.41
2023-04-28T02:08:37.771Z,100827.61
2023-04-28T02:11:04.204Z,100823.00
2023-04-28T02:13:30.572Z,100823.23
2023-04-28T02:16:00.804Z,100823.66
2023-04-28T02:18:27.066Z,100818.45
2023-04-28T02:21:10.583Z,100821.18
2023-04-28T02:23:37.392Z,100823.20
2023-04-28T02:26:04.008Z,100827.33
2023-04-28T02:28:30.742Z,100823.73
2023-04-28T02:31:08.112Z,100823.92
2023-04-28T02:33:35.448Z,100821.86
2023-04-28T02:36:03.051Z,100818.91
2023-04-28T02:38:29.592Z,100817.59
2023-04-28T02:41:00.401Z,100817.56
2023-04-28T02:43:28.090Z,100824.31
2023-04-28T02:45:54.459Z,100821.81
2023-04-28T02:48:20.899Z,100823.55
2023-04-28T02:51:50.327Z,100823.46
2023-04-28T02:54:16.927Z,100830.09
2023-04-28T02:56:43.270Z,100832.55
2023-04-28T02:59:09.586Z,100837.83
2023-04-28T03:01:36.806Z,100833.16
2023-04-28T03:04:03.371Z,100833.75
2023-04-28T03:06:30.944Z,100837.27
2023-04-28T03:08:57.455Z,100837.56
2023-04-28T03:11:23.731Z,100836.11
2023-04-28T03:14:18.532Z,100833.23
2023-04-28T03:16:45.194Z,100837.88
2023-04-28T03:19:11.577Z,100837.64
2023-04-28T03:21:37.818Z,100835.77
2023-04-28T03:24:05.570Z,100838.65
2023-04-28T03:26:32.513Z,100842.02
2023-04-28T03:28:58.838Z,100842.17
2023-04-28T03:32:16.507Z,100843.73
2023-04-28T03:34:43.090Z,100841.04
2023-04-28T03:37:09.574Z,100842.22
2023-04-28T03:39:36.838Z,100845.08
2023-04-28T03:42:03.384Z,100848.55
2023-04-28T03:44:30.017Z,100845.83
2023-04-28T03:46:56.585Z,100846.42
2023-04-28T03:49:22.938Z,100845.70
2023-04-28T03:51:50.656Z,100843.18
2023-04-28T03:54:17.323Z,100844.17
2023-04-28T03:56:44.037Z,100841.34
2023-04-28T03:59:11.624Z,100844.42
2023-04-28T04:01:38.095Z,100844.71
2023-04-28T04:04:04.802Z,100843.35
2023-04-28T04:06:31.928Z,100843.84
2023-04-28T04:08:58.274Z,100844.80
2023-04-28T04:11:27.173Z,100848.23
2023-04-28T04:13:53.815Z,100852.66
2023-04-28T04:16:21.993Z,100854.41
2023-04-28T04:18:48.610Z,100854.70
2023-04-28T04:21:15.268Z,100856.73
2023-04-28T04:23:41.528Z,100858.83
2023-04-28T04:26:07.923Z,100861.08
2023-04-28T04:28:34.397Z,100864.13
2023-04-28T04:31:02.115Z,100862.52
2023-04-28T04:33:28.426Z,100864.73
2023-04-28T04:35:54.792Z,100865.14
2023-04-28T04:38:22.532Z,100866.62
2023-04-28T04:40:48.926Z,100866.38
2023-04-28T04:43:15.333Z,100866.86
2023-04-28T04:45:41.581Z,100870.05
2023-04-28T04:48:08.661Z,100867.15
2023-04-28T04:50:35.082Z,100869.29
2023-04-28T04:53:01.446Z,100873.80
2023-04-28T04:55:27.905Z,100874.01
2023-04-28T04:57:56.548Z,100876.00
2023-04-28T05:00:22.909Z,100874.36
2023-04-28T05:02:49.586Z,100873.19
2023-04-28T05:05:21.424Z,100873.99
2023-04-28T05:07:49.151Z,100875.02
2023-04-28T05:10:15.502Z,100877.94
2023-04-28T05:16:54.384Z,100880.19
2023-04-28T05:19:20.811Z,100884.85
2023-04-28T05:21:47.805Z,100886.66
2023-04-28T05:24:14.750Z,100881.84
2023-04-28T05:26:41.268Z,100885.70
2023-04-28T05:29:07.685Z,100888.87
2023-04-28T05:31:34.364Z,100890.65
2023-04-28T05:34:00.790Z,100896.71
2023-04-28T05:40:46.769Z,100895.56
2023-04-28T05:43:38.075Z,100903.85
2023-04-28T05:46:07.758Z,100902.80
2023-04-28T05:48:38.668Z,100904.50
2023-04-28T05:51:05.283Z,100902.67
2023-04-28T05:53:31.554Z,100907.73
2023-04-28T05:55:57.911Z,100911.39
2023-04-28T05:58:24.309Z,100913.17
2023-04-28T06:00:50.676Z,100912.71
2023-04-28T06:03:18.349Z,100912.40
2023-04-28T06:05:45.241Z,100911.07
2023-04-28T06:12:38.906Z,100913.00
2023-04-28T06:15:05.976Z,100911.71
2023-04-28T06:17:33.106Z,100913.37
2023-04-28T06:19:59.655Z,100911.36
2023-04-28T06:22:25.970Z,100914.96
2023-04-28T06:24:52.543Z,100917.80
2023-04-28T06:27:19.118Z,100916.08
2023-04-28T06:29:45.629Z,100918.59
2023-04-28T06:32:11.907Z,100918.17
2023-04-28T06:34:38.250Z,100920.83
2023-04-28T06:37:04.600Z,100918.52
2023-04-28T06:39:30.987Z,100920.55
2023-04-28T06:41:57.465Z,100918.17
2023-04-28T06:44:23.915Z,100921.69
2023-04-28T06:46:50.308Z,100921.29
2023-04-28T06:49:16.646Z,100922.66
2023-04-28T06:51:43.174Z,100920.92
2023-04-28T06:54:09.516Z,100921.41
2023-04-28T06:56:35.860Z,100920.05
2023-04-28T06:59:02.573Z,100924.99
2023-04-28T07:01:28.851Z,100928.02
2023-04-28T07:03:55.572Z,100928.61
2023-04-28T07:10:41.661Z,100929.20
2023-04-28T07:13:08.518Z,100925.88
2023-04-28T07:15:34.961Z,100922.16
2023-04-28T07:18:01.747Z,100925.97
2023-04-28T07:20:28.037Z,100928.45
2023-04-28T07:22:54.558Z,100925.11
2023-04-28T07:25:20.920Z,100924.09
2023-04-28T07:27:47.325Z,100920.42
2023-04-28T07:30:26.645Z,100919.99
2023-04-28T07:32:54.738Z,100916.13
2023-04-28T07:35:21.544Z,100920.42
2023-04-28T07:37:47.818Z,100917.02
2023-04-28T07:40:14.165Z,100916.19
2023-04-28T07:42:40.562Z,100909.38
2023-04-28T07:45:07.474Z,100907.52
2023-04-28T07:47:34.451Z,100903.73
2023-04-28T07:50:04.407Z,100900.02
2023-04-28T07:52:31.779Z,100898.27
2023-04-28T07:54:59.091Z,100900.35
2023-04-28T07:57:25.971Z,100900.83
2023-04-28T07:59:52.322Z,100902.79
2023-04-28T08:02:20.030Z,100899.55
2023-04-28T08:04:46.683Z,100897.86
2023-04-28T08:07:13.712Z,100895.00
2023-04-28T08:09:42.414Z,100889.11
2023-04-28T08:12:08.725Z,100887.40
2023-04-28T08:14:35.393Z,100890.09
2023-04-28T08:17:02.242Z,100890.66
2023-04-28T08:19:28.669Z,100884.66
2023-04-28T08:21:55.262Z,100890.05
2023-04-28T08:24:22.014Z,100885.61
2023-04-28T08:26:48.586Z,100882.91
2023-04-28T08:29:15.342Z,100881.09
2023-04-28T08:31:41.902Z,100879.11
2023-04-28T08:34:08.313Z,100879.66
2023-04-28T08:36:34.656Z,100880.96
2023-04-28T08:39:03.402Z,100883.73
2023-04-28T08:41:32.398Z,100880.60
2023-04-28T08:43:58.706Z,100880.84
2023-04-28T08:46:27.038Z,100880.11
2023-04-28T08:49:01.107Z,100877.37
2023-04-28T08:51:33.473Z,100873.44
2023-04-28T08:54:24.941Z,100873.02
2023-04-28T08:56:51.461Z,100872.33
2023-04-28T08:59:18.743Z,100870.29
2023-04-28T09:01:48.887Z,100874.16
2023-04-28T09:04:19.843Z,100871.18
2023-04-28T09:06:46.895Z,100868.31
2023-04-28T09:09:32.479Z,100869.88
2023-04-28T09:12:01.906Z,100865.13
2023-04-28T09:14:29.868Z,100866.35
2023-04-28T09:16:56.901Z,100865.56
2023-04-28T09:19:23.696Z,100866.63
2023-04-28T09:21:56.782Z,100861.30
2023-04-28T09:24:26.704Z,100867.46
2023-04-28T09:26:55.341Z,100865.20
2023-04-28T09:29:22.175Z,100868.50
2023-04-28T09:31:48.849Z,100868.76
2023-04-28T09:34:15.544Z,100864.38
2023-04-28T09:36:42.264Z,100866.41
2023-04-28T09:39:08.593Z,100858.11
2023-04-28T09:41:44.735Z,100860.54
2023-04-28T09:44:15.322Z,100861.89
2023-04-28T09:46:44.289Z,100854.23
2023-04-28T09:49:11.832Z,100847.59
2023-04-28T09:52:13.411Z,100848.93
2023-04-28T09:54:39.950Z,100843.59
2023-04-28T09:57:06.592Z,100841.09
2023-04-28T10:00:23.880Z,100841.67
2023-04-28T10:02:51.119Z,100836.26
2023-04-28T10:05:19.187Z,100825.86
2023-04-28T10:07:46.025Z,100824.17
2023-04-28T10:10:13.962Z,100819.60
2023-04-28T10:12:41.035Z,100812.59
2023-04-28T10:15:09.754Z,100809.95
2023-04-28T10:17:36.490Z,100806.08
2023-04-28T10:20:03.153Z,100804.56
2023-04-28T10:22:57.655Z,100803.84
2023-04-28T10:25:26.498Z,100798.64
2023-04-28T10:27:53.646Z,100798.17
2023-04-28T10:30:28.196Z,100797.21
2023-04-28T10:33:08.559Z,100792.37
2023-04-28T10:35:45.976Z,100791.27
2023-04-28T10:38:21.165Z,100787.23
2023-04-28T10:40:49.180Z,100785.70
2023-04-28T10:43:24.603Z,100785.06
2023-04-28T10:45:59.519Z,100787.89
2023-04-28T10:48:25.762Z,100783.32
2023-04-28T10:51:05.596Z,100776.58
2023-04-28T10:53:57.601Z,100775.27
2023-04-28T10:56:26.189Z,100773.91
2023-04-28T10:58:54.218Z,100770.05
2023-04-28T11:01:20.610Z,100764.52
2023-04-28T11:03:59.782Z,100759.11
2023-04-28T11:06:33.561Z,100760.80
2023-04-28T11:09:19.313Z,100763.05
2023-04-28T11:12:10.068Z,100762.09
2023-04-28T11:14:39.694Z,100757.13
2023-04-28T11:17:12.527Z,100758.10
2023-04-28T11:19:40.162Z,100751.25
2023-04-28T11:22:21.064Z,100747.58
2023-04-28T11:24:59.113Z,100749.11
2023-04-28T11:27:27.081Z,100745.00
2023-04-28T11:29:53.510Z,100745.38
2023-04-28T11:32:28.092Z,100734.47
2023-04-28T11:34:54.780Z,100733.52
2023-04-28T11:37:22.195Z,100735.19
2023-04-28T11:40:22.659Z,100730.14
2023-04-28T11:42:49.062Z,100725.54
2023-04-28T11:45:15.416Z,100727.58
2023-04-28T11:47:42.000Z,100722.84
2023-04-28T11:50:08.772Z,100721.97
2023-04-28T11:52:35.376Z,100724.61
2023-04-28T11:55:02.651Z,100725.32
2023-04-28T11:57:29.107Z,100727.30
2023-04-28T12:00:18.697Z,100730.80
2023-04-28T12:02:45.772Z,100727.56
2023-04-28T12:05:12.516Z,100725.55
2023-04-28T12:07:43.557Z,100721.65
2023-04-28T12:10:12.498Z,100721.86
2023-04-28T12:12:49.841Z,100716.46
2023-04-28T12:15:18.186Z,100720.08
2023-04-28T12:17:47.630Z,100716.57
2023-04-28T12:20:34.043Z,100717.72
2023-04-28T12:23:00.507Z,100713.80
2023-04-28T12:25:26.933Z,100713.90
2023-04-28T12:28:04.498Z,100715.45
2023-04-28T12:30:40.929Z,100713.09
2023-04-28T12:33:26.781Z,100707.48
2023-04-28T12:35:55.466Z,100710.70
2023-04-28T12:38:22.779Z,100705.38
2023-04-28T12:40:49.135Z,100694.83
2023-04-28T12:43:15.448Z,100693.01
2023-04-28T12:45:42.226Z,100689.81
2023-04-28T12:48:08.617Z,100695.44
2023-04-28T12:50:35.056Z,100696.27
2023-04-28T12:53:56.918Z,100697.69
2023-04-28T12:56:23.178Z,100693.97
2023-04-28T12:58:49.558Z,100697.85
2023-04-28T13:01:16.010Z,100684.63
2023-04-28T13:03:43.644Z,100677.58
2023-04-28T13:06:10.503Z,100675.56
2023-04-28T13:08:36.832Z,100676.42
2023-04-28T13:11:07.345Z,100670.77
2023-04-28T13:13:39.384Z,100675.70
2023-04-28T13:16:05.849Z,100671.22
2023-04-28T13:18:32.193Z,100669.59
2023-04-28T13:20:58.997Z,100669.18
2023-04-28T13:23:25.348Z,100665.23
2023-04-28T13:26:33.481Z,100656.83
2023-04-28T13:29:01.502Z,100662.41
2023-04-28T13:31:29.662Z,100662.63
2023-04-28T13:34:01.440Z,100661.90
2023-04-28T13:36:32.430Z,100660.14
2023-04-28T13:39:01.592Z,100652.21
2023-04-28T13:41:28.957Z,100653.06
2023-04-28T13:43:56.780Z,100651.62
2023-04-28T13:46:23.264Z,100643.06
2023-04-28T13:48:49.969Z,100643.93
2023-04-28T13:51:16.248Z,100648.84
2023-04-28T13:53:44.833Z,100642.17
2023-04-28T13:56:12.666Z,100636.06
2023-04-28T13:58:39.012Z,100636.73
2023-04-28T14:01:05.796Z,100637.59
2023-04-28T14:03:32.180Z,100637.80
2023-04-28T14:05:58.813Z,100630.47
2023-04-28T14:08:26.473Z,100632.98
2023-04-28T14:10:54.252Z,100631.50
2023-04-28T14:13:20.667Z,100627.98
2023-04-28T14:15:57.805Z,100632.27
2023-04-28T14:18:26.273Z,100622.16
2023-04-28T14:20:53.744Z,100621.24
2023-04-28T14:23:22.953Z,100619.89
2023-04-28T14:25:49.704Z,100618.83
2023-04-28T14:28:16.110Z,100613.00
2023-04-28T14:30:42.531Z,100615.27
2023-04-28T14:33:08.955Z,100611.93
2023-04-28T14:35:35.238Z,100608.04
2023-04-28T14:38:02.887Z,100601.79
2023-04-28T14:40:29.255Z,100598.59
2023-04-28T14:42:55.806Z,100597.90
2023-04-28T14:45:22.248Z,100595.54
2023-04-28T14:47:50.903Z,100601.55
2023-04-28T14:50:17.915Z,100607.66
2023-04-28T14:52:44.472Z,100600.55
2023-04-28T14:55:10.902Z,100599.80
2023-04-28T14:57:37.472Z,100593.79
2023-04-28T15:00:06.670Z,100591.99
2023-04-28T15:02:33.724Z,100590.61
2023-04-28T15:05:00.249Z,100589.95
2023-04-28T15:07:30.877Z,100586.70
2023-04-28T15:09:58.743Z,100586.84
2023-04-28T15:12:25.828Z,100584.04
2023-04-28T15:14:53.134Z,100581.75
2023-04-28T15:17:20.581Z,100578.17
2023-04-28T15:19:47.124Z,100575.39
2023-04-28T15:22:15.738Z,100570.55
2023-04-28T15:24:42.104Z,100567.58
2023-04-28T15:27:08.565Z,100562.59
2023-04-28T15:29:34.926Z,100566.03
2023-04-28T15:32:01.516Z,100566.98
2023-04-28T15:34:28.074Z,100562.02
2023-04-28T15:36:54.517Z,100555.54
2023-04-28T15:39:20.846Z,100554.96
2023-04-28T15:41:47.200Z,100557.13
2023-04-28T15:44:15.442Z,100555.04
2023-04-28T15:46:43.990Z,100558.31
2023-04-28T15:49:11.225Z,100554.41
2023-04-28T15:51:37.890Z,100555.89
2023-04-28T15:54:10.419Z,100552.84
2023-04-28T15:56:36.784Z,100555.70
2023-04-28T15:59:03.691Z,100552.81
2023-04-28T16:01:30.019Z,100555.17
2023-04-28T16:03:56.557Z,100551.34
2023-04-28T16:06:23.229Z,100545.19
2023-04-28T16:08:49.528Z,100535.19
2023-04-28T16:11:18.748Z,100538.16
2023-04-28T16:13:45.085Z,100532.65
2023-04-28T16:16:12.158Z,100535.75
2023-04-28T16:18:38.828Z,100529.45
2023-04-28T16:21:05.193Z,100526.98
2023-04-28T16:23:31.498Z,100520.89
2023-04-28T16:25:57.834Z,100521.04
2023-04-28T16:28:26.511Z,100516.04
2023-04-28T16:30:52.792Z,100515.87
2023-04-28T16:33:19.034Z,100514.05
2023-04-28T16:35:53.211Z,100517.11
2023-04-28T16:38:20.079Z,100514.36
2023-04-28T16:40:46.388Z,100507.98
2023-04-28T16:43:12.746Z,100504.44
2023-04-28T16:45:39.489Z,100501.03
2023-04-28T16:48:05.897Z,100499.42
2023-04-28T16:50:32.957Z,100495.60
2023-04-28T16:52:59.213Z,100495.02
2023-04-28T16:55:26.672Z,100496.36
2023-04-28T16:57:53.049Z,100498.80
2023-04-28T17:00:19.931Z,100492.70
2023-04-28T17:02:46.419Z,100494.38
2023-04-28T17:05:12.879Z,100492.67
2023-04-28T17:07:39.654Z,100491.80
2023-04-28T17:10:06.523Z,100488.07
2023-04-28T17:12:32.843Z,100485.59
2023-04-28T17:14:59.174Z,100480.95
2023-04-28T17:17:25.434Z,100482.60
2023-04-28T17:19:52.156Z,100482.57
2023-04-28T17:22:18.595Z,100480.39
2023-04-28T17:24:44.887Z,100482.96
2023-04-28T17:27:11.374Z,100478.23
2023-04-28T17:29:37.759Z,100480.81
2023-04-28T17:32:04.287Z,100479.01
2023-04-28T17:34:30.808Z,100477.71
2023-04-28T17:36:57.091Z,100473.05
2023-04-28T17:39:23.362Z,100469.14
2023-04-28T17:41:49.856Z,100467.86
2023-04-28T17:44:16.063Z,100470.85
2023-04-28T17:51:08.838Z,100470.55
2023-04-28T17:53:56.359Z,100470.87
2023-04-28T17:56:23.014Z,100469.38
2023-04-28T17:58:49.703Z,100469.33
2023-04-28T18:01:16.496Z,100468.68
2023-04-28T18:03:42.996Z,100468.48
2023-04-28T18:06:09.695Z,100466.70
2023-04-28T18:09:01.637Z,100466.11
2023-04-28T18:11:27.903Z,100463.70
2023-04-28T18:13:54.717Z,100463.58
2023-04-28T18:16:21.135Z,100466.00
2023-04-28T18:18:47.984Z,100466.05
2023-04-28T18:21:14.239Z,100463.88
2023-04-28T18:23:40.670Z,100461.73
2023-04-28T18:26:07.123Z,100458.59
2023-04-28T18:28:33.432Z,100457.90
2023-04-28T18:31:06.516Z,100460.02
2023-04-28T18:33:32.765Z,100458.98
2023-04-28T18:36:00.206Z,100461.58
2023-04-28T18:39:05.586Z,100460.34
2023-04-28T18:41:33.845Z,100464.02
2023-04-28T18:44:00.863Z,100466.02
2023-04-28T18:46:28.833Z,100462.67
2023-04-28T18:48:55.824Z,100458.91
2023-04-28T18:51:22.224Z,100461.63
2023-04-28T18:53:48.692Z,100462.70
2023-04-28T18:56:15.417Z,100462.50
2023-04-28T18:58:41.956Z,100464.67
2023-04-28T19:01:15.897Z,100465.58
2023-04-28T19:03:44.045Z,100464.42
2023-04-28T19:06:21.545Z,100459.34
2023-04-28T19:08:47.867Z,100459.05
2023-04-28T19:11:14.660Z,100459.30
2023-04-28T19:13:43.772Z,100460.24
2023-04-28T19:16:10.141Z,100459.15
2023-04-28T19:18:38.392Z,100459.95
2023-04-28T19:21:05.489Z,100457.16
2023-04-28T19:23:32.032Z,100457.73
2023-04-28T19:25:59.247Z,100458.80
2023-04-28T19:28:26.067Z,100456.64
2023-04-28T19:30:53.386Z,100454.45
2023-04-28T19:33:20.210Z,100454.66
2023-04-28T19:35:46.696Z,100451.09
2023-04-28T19:38:13.469Z,100452.46
2023-04-28T19:40:39.825Z,100450.19
2023-04-28T19:43:06.147Z,100451.69
2023-04-28T19:45:35.521Z,100448.02
2023-04-28T19:48:02.121Z,100450.85
2023-04-28T19:50:28.563Z,100447.98
2023-04-28T19:52:54.966Z,100445.88
2023-04-28T19:55:23.139Z,100448.27
2023-04-28T19:57:50.019Z,100445.46
2023-04-28T20:00:16.473Z,100443.66
2023-04-28T20:02:44.057Z,100447.11
2023-04-28T20:05:10.942Z,100451.59
2023-04-28T20:07:38.967Z,100448.66
2023-04-28T20:10:05.883Z,100451.92
2023-04-28T20:12:32.448Z,100447.03
2023-04-28T20:14:59.058Z,100450.73
2023-04-28T20:17:25.437Z,100449.09
2023-04-28T20:19:52.054Z,100446.43
2023-04-28T20:22:18.513Z,100444.17
2023-04-28T20:24:44.806Z,100442.52
2023-04-28T20:27:29.928Z,100445.29
2023-04-28T20:29:56.375Z,100448.48
2023-04-28T20:32:22.673Z,100446.09
2023-04-28T20:34:49.018Z,100446.98
2023-04-28T20:37:15.330Z,100450.98
2023-04-28T20:39:41.747Z,100449.33
2023-04-28T20:42:08.458Z,100449.70
2023-04-28T20:44:35.171Z,100446.66
2023-04-28T20:47:01.739Z,100443.98
2023-04-28T20:49:28.268Z,100445.83
2023-04-28T20:52:01.743Z,100443.95
2023-04-28T20:54:28.064Z,100442.58
2023-04-28T20:56:54.521Z,100442.16
2023-04-28T20:59:21.253Z,100441.02
2023-04-28T21:01:48.062Z,100437.94
2023-04-28T21:04:14.551Z,100438.02
2023-04-28T21:06:41.110Z,100436.94
2023-04-28T21:09:07.420Z,100436.00
2023-04-28T21:11:33.706Z,100436.34
2023-04-28T21:14:00.541Z,100436.34
2023-04-28T21:16:27.640Z,100430.66
2023-04-28T21:18:54.082Z,100429.20
2023-04-28T21:21:22.074Z,100428.04
2023-04-28T21:23:48.759Z,100428.95
2023-04-28T21:26:15.094Z,100425.35
2023-04-28T21:28:41.466Z,100430.05
2023-04-28T21:31:07.784Z,100428.25
2023-04-28T21:33:34.135Z,100427.39
2023-04-28T21:36:07.308Z,100431.23
2023-04-28T21:38:34.019Z,100428.64
2023-04-28T21:41:00.483Z,100433.02
2023-04-28T21:43:26.763Z,100426.30
2023-04-28T21:45:53.201Z,100430.19
2023-04-28T21:48:19.520Z,100426.45
2023-04-28T21:50:46.687Z,100424.74
2023-04-28T21:53:13.158Z,100424.05
2023-04-28T21:55:39.526Z,100423.70
2023-04-28T21:58:05.768Z,100423.14
2023-04-28T22:00:39.461Z,100423.91
2023-04-28T22:03:06.173Z,100422.63
2023-04-28T22:05:33.625Z,100420.69
2023-04-28T22:08:00.908Z,100419.65
2023-04-28T22:10:27.402Z,100417.23
2023-04-28T22:12:53.668Z,100415.56
2023-04-28T22:15:55.593Z,100414.81
2023-04-28T22:18:22.027Z,100409.63
2023-04-28T22:20:49.363Z,100410.52
2023-04-28T22:23:15.721Z,100410.52
2023-04-28T22:25:42.739Z,100411.77
2023-04-28T22:28:09.042Z,100408.79
2023-04-28T22:30:35.413Z,100408.15
2023-04-28T22:37:18.934Z,100410.30
2023-04-28T22:39:45.229Z,100407.13
2023-04-28T22:42:11.681Z,100405.92
2023-04-28T22:44:37.940Z,100404.45
2023-04-28T22:47:04.412Z,100405.83
2023-04-28T22:49:30.746Z,100407.88
2023-04-28T22:51:58.012Z,100403.45
2023-04-28T22:54:24.447Z,100402.00
2023-04-28T22:56:53.189Z,100401.69
2023-04-28T22:59:19.955Z,100397.86
2023-04-28T23:01:46.312Z,100401.08
2023-04-28T23:04:12.773Z,100395.04
2023-04-28T23:06:39.292Z,100395.14
2023-04-28T23:09:06.393Z,100392.80
2023-04-28T23:11:32.644Z,100392.30
2023-04-28T23:13:58.930Z,100390.45
2023-04-28T23:16:25.274Z,100385.98
2023-04-28T23:18:51.560Z,100386.14
2023-04-28T23:21:17.926Z,100382.39
2023-04-28T23:23:44.209Z,100382.17
2023-04-28T23:26:10.535Z,100382.31
2023-04-28T23:28:36.918Z,100381.94
2023-04-28T23:31:04.390Z,100379.80
2023-04-28T23:33:30.730Z,100380.98
2023-04-28T23:35:57.030Z,100379.89
2023-04-28T23:38:24.701Z,100379.98
2023-04-28T23:40:50.976Z,100375.06
2023-04-28T23:43:17.307Z,100372.33
2023-04-28T23:45:43.705Z,100366.36
2023-04-28T23:48:10.443Z,100365.35
2023-04-28T23:50:36.839Z,100364.25
2023-04-28T23:53:04.820Z,100361.85
2023-04-28T23:55:31.052Z,100360.86
2023-04-28T23:57:57.339Z,100358.23
